sensor_id;sensor_type;location;lat;lon;timestamp;pressure;altitude;pressure_sealevel;temperature;humidity
17209;BME280;8720;48.488;9.202;2023-02-22T00:00:41;96932.69;;;9.74;44.88
17209;BME280;8720;48.488;9.202;2023-02-22T00:03:13;96947.97;;;9.92;45.09
17209;BME280;8720;48.488;9.202;2023-02-22T00:05:41;96887.03;;;9.53;44.74
17209;BME280;8720;48.488;9.202;2023-02-22T00:08:12;96948.03;;;9.89;45.03
17209;BME280;8720;48.488;9.202;2023-02-22T00:10:40;96947.22;;;9.87;45.07
17209;BME280;8720;48.488;9.202;2023-02-22T00:13:11;96942.88;;;9.86;45.13
17209;BME280;8720;48.488;9.202;2023-02-22T00:15:40;96942.88;;;9.86;44.99
17209;BME280;8720;48.488;9.202;2023-02-22T00:18:12;96930.72;;;9.83;45.25
17209;BME280;8720;48.488;9.202;2023-02-22T00:20:40;96920.50;;;9.74;45.24
17209;BME280;8720;48.488;9.202;2023-02-22T00:23:15;96925.66;;;9.77;45.36
17209;BME280;8720;48.488;9.202;2023-02-22T00:25:44;96918.75;;;9.75;45.27
17209;BME280;8720;48.488;9.202;2023-02-22T00:28:12;96922.25;;;9.74;45.42
17209;BME280;8720;48.488;9.202;2023-02-22T00:30:42;96923.06;;;9.76;45.59
17209;BME280;8720;48.488;9.202;2023-02-22T00:33:12;96919.56;;;9.77;45.62
17209;BME280;8720;48.488;9.202;2023-02-22T00:35:40;96920.44;;;9.76;45.66
17209;BME280;8720;48.488;9.202;2023-02-22T00:38:12;96919.56;;;9.77;45.73
17209;BME280;8720;48.488;9.202;2023-02-22T00:40:39;96920.44;;;9.76;45.70
17209;BME280;8720;48.488;9.202;2023-02-22T00:43:07;96924.81;;;9.77;45.68
17209;BME280;8720;48.488;9.202;2023-02-22T00:45:36;96916.22;;;9.70;45.71
17209;BME280;8720;48.488;9.202;2023-02-22T00:48:05;96924.81;;;9.77;45.68
17209;BME280;8720;48.488;9.202;2023-02-22T00:50:35;96932.78;;;9.71;45.87
17209;BME280;8720;48.488;9.202;2023-02-22T00:53:04;96937.03;;;9.75;45.81
17209;BME280;8720;48.488;9.202;2023-02-22T00:55:35;96925.81;;;9.71;45.79
17209;BME280;8720;48.488;9.202;2023-02-22T00:58:04;96931.97;;;9.67;45.89
17209;BME280;8720;48.488;9.202;2023-02-22T01:00:34;96930.38;;;9.62;45.97
17209;BME280;8720;48.488;9.202;2023-02-22T01:03:02;96930.38;;;9.62;45.89
17209;BME280;8720;48.488;9.202;2023-02-22T01:05:31;96929.56;;;9.58;45.90
17209;BME280;8720;48.488;9.202;2023-02-22T01:08:01;96933.16;;;9.54;45.91
17209;BME280;8720;48.488;9.202;2023-02-22T01:10:30;96929.84;;;9.46;46.03
17209;BME280;8720;48.488;9.202;2023-02-22T01:12:59;96929.13;;;9.38;46.21
17209;BME280;8720;48.488;9.202;2023-02-22T01:15:28;96926.56;;;9.37;46.20
17209;BME280;8720;48.488;9.202;2023-02-22T01:17:57;96924.78;;;9.37;46.16
17209;BME280;8720;48.488;9.202;2023-02-22T01:20:27;96931.78;;;9.37;46.00
17209;BME280;8720;48.488;9.202;2023-02-22T01:22:57;96929.25;;;9.32;46.40
17209;BME280;8720;48.488;9.202;2023-02-22T01:25:29;96924.03;;;9.32;46.23
17209;BME280;8720;48.488;9.202;2023-02-22T01:27:59;96923.19;;;9.30;46.17
17209;BME280;8720;48.488;9.202;2023-02-22T01:30:29;96920.63;;;9.29;46.03
17209;BME280;8720;48.488;9.202;2023-02-22T01:32:58;96907.63;;;9.26;46.36
17209;BME280;8720;48.488;9.202;2023-02-22T01:35:29;96905.00;;;9.26;46.36
17209;BME280;8720;48.488;9.202;2023-02-22T01:37:57;96909.41;;;9.25;46.22
17209;BME280;8720;48.488;9.202;2023-02-22T01:40:29;96905.00;;;9.26;46.48
17209;BME280;8720;48.488;9.202;2023-02-22T01:43:00;96886.03;;;9.19;46.57
17209;BME280;8720;48.488;9.202;2023-02-22T01:45:56;96890.47;;;9.15;46.27
17209;BME280;8720;48.488;9.202;2023-02-22T01:48:30;96887.72;;;9.22;46.77
17209;BME280;8720;48.488;9.202;2023-02-22T01:51:02;96885.13;;;9.22;46.74
17209;BME280;8720;48.488;9.202;2023-02-22T01:53:43;96883.34;;;9.22;46.82
17209;BME280;8720;48.488;9.202;2023-02-22T01:56:15;96885.06;;;9.23;46.94
17209;BME280;8720;48.488;9.202;2023-02-22T01:58:48;96875.50;;;9.24;46.84
17209;BME280;8720;48.488;9.202;2023-02-22T02:01:19;96864.16;;;9.25;46.86
17209;BME280;8720;48.488;9.202;2023-02-22T02:03:49;96862.38;;;9.27;46.59
17209;BME280;8720;48.488;9.202;2023-02-22T02:06:19;96866.69;;;9.28;46.77
17209;BME280;8720;48.488;9.202;2023-02-22T02:08:56;96870.22;;;9.27;46.85
17209;BME280;8720;48.488;9.202;2023-02-22T02:11:28;96866.72;;;9.26;46.82
17209;BME280;8720;48.488;9.202;2023-02-22T02:13:59;96858.03;;;9.26;46.91
17209;BME280;8720;48.488;9.202;2023-02-22T02:16:37;96851.97;;;9.25;46.88
17209;BME280;8720;48.488;9.202;2023-02-22T02:19:13;96856.31;;;9.25;46.87
17209;BME280;8720;48.488;9.202;2023-02-22T02:22:22;96857.25;;;9.22;46.67
17209;BME280;8720;48.488;9.202;2023-02-22T02:25:43;96849.53;;;9.18;46.57
17209;BME280;8720;48.488;9.202;2023-02-22T02:32:26;96838.44;;;9.06;46.58
17209;BME280;8720;48.488;9.202;2023-02-22T02:35:06;96839.34;;;9.05;46.85
17209;BME280;8720;48.488;9.202;2023-02-22T02:37:49;96842.91;;;9.01;46.86
17209;BME280;8720;48.488;9.202;2023-02-22T02:40:29;96837.72;;;9.00;47.02
17209;BME280;8720;48.488;9.202;2023-02-22T02:43:11;96833.38;;;8.99;47.06
17209;BME280;8720;48.488;9.202;2023-02-22T02:45:47;96823.97;;;8.92;47.23
17209;BME280;8720;48.488;9.202;2023-02-22T02:48:23;96828.25;;;8.96;46.95
17209;BME280;8720;48.488;9.202;2023-02-22T02:50:56;96821.28;;;8.95;46.93
17209;BME280;8720;48.488;9.202;2023-02-22T02:53:42;96804.97;;;8.85;46.74
17209;BME280;8720;48.488;9.202;2023-02-22T02:56:11;96804.94;;;8.88;46.92
17209;BME280;8720;48.488;9.202;2023-02-22T02:58:48;96814.53;;;8.86;47.00
17209;BME280;8720;48.488;9.202;2023-02-22T03:01:41;96817.19;;;8.83;46.91
17209;BME280;8720;48.488;9.202;2023-02-22T03:04:32;96805.13;;;8.78;47.08
17209;BME280;8720;48.488;9.202;2023-02-22T03:07:27;96803.47;;;8.74;47.03
17209;BME280;8720;48.488;9.202;2023-02-22T03:10:13;96809.69;;;8.68;46.92
17209;BME280;8720;48.488;9.202;2023-02-22T03:12:50;96810.59;;;8.67;46.94
17209;BME280;8720;48.488;9.202;2023-02-22T03:15:34;96811.50;;;8.65;46.99
17209;BME280;8720;48.488;9.202;2023-02-22T03:18:14;96808.09;;;8.61;47.16
17209;BME280;8720;48.488;9.202;2023-02-22T03:20:49;96798.63;;;8.57;47.15
17209;BME280;8720;48.488;9.202;2023-02-22T03:23:27;96803.00;;;8.55;47.11
17209;BME280;8720;48.488;9.202;2023-02-22T03:26:01;96804.78;;;8.53;47.21
17209;BME280;8720;48.488;9.202;2023-02-22T03:28:32;96797.06;;;8.47;47.31
17209;BME280;8720;48.488;9.202;2023-02-22T03:31:08;96804.97;;;8.44;47.42
17209;BME280;8720;48.488;9.202;2023-02-22T03:33:43;96802.47;;;8.38;47.37
17209;BME280;8720;48.488;9.202;2023-02-22T03:36:21;96808.59;;;8.36;47.49
17209;BME280;8720;48.488;9.202;2023-02-22T03:38:54;96800.84;;;8.31;47.40
17209;BME280;8720;48.488;9.202;2023-02-22T03:41:26;96804.38;;;8.29;47.65
17209;BME280;8720;48.488;9.202;2023-02-22T03:44:01;96801.81;;;8.25;47.50
17209;BME280;8720;48.488;9.202;2023-02-22T03:46:31;96796.66;;;8.22;47.50
17209;BME280;8720;48.488;9.202;2023-02-22T03:49:08;96795.84;;;8.19;47.40
17209;BME280;8720;48.488;9.202;2023-02-22T03:51:41;96786.50;;;8.07;47.36
17209;BME280;8720;48.488;9.202;2023-02-22T03:54:09;96795.16;;;8.09;47.44
17209;BME280;8720;48.488;9.202;2023-02-22T03:56:48;96796.13;;;8.04;47.86
17209;BME280;8720;48.488;9.202;2023-02-22T03:59:21;96788.34;;;8.01;47.70
17209;BME280;8720;48.488;9.202;2023-02-22T04:01:50;96791.03;;;7.98;47.80
17209;BME280;8720;48.488;9.202;2023-02-22T04:04:18;96788.44;;;7.95;47.82
17209;BME280;8720;48.488;9.202;2023-02-22T04:06:48;96794.56;;;7.94;47.78
17209;BME280;8720;48.488;9.202;2023-02-22T04:09:18;96792.81;;;7.93;47.68
17209;BME280;8720;48.488;9.202;2023-02-22T04:11:46;96792.00;;;7.92;47.81
17209;BME280;8720;48.488;9.202;2023-02-22T04:14:14;96786.78;;;7.92;47.72
17209;BME280;8720;48.488;9.202;2023-02-22T04:16:42;96790.25;;;7.91;47.86
17209;BME280;8720;48.488;9.202;2023-02-22T04:19:10;96783.44;;;7.84;47.89
17209;BME280;8720;48.488;9.202;2023-02-22T04:21:38;96785.94;;;7.89;47.81
17209;BME280;8720;48.488;9.202;2023-02-22T04:24:13;96785.97;;;7.87;47.88
17209;BME280;8720;48.488;9.202;2023-02-22T04:26:41;96785.97;;;7.87;47.90
17209;BME280;8720;48.488;9.202;2023-02-22T04:29:10;96782.53;;;7.85;47.97
17209;BME280;8720;48.488;9.202;2023-02-22T04:31:39;96782.59;;;7.84;48.04
17209;BME280;8720;48.488;9.202;2023-02-22T04:34:07;96786.91;;;7.83;48.01
17209;BME280;8720;48.488;9.202;2023-02-22T04:36:37;96773.16;;;7.75;48.38
17209;BME280;8720;48.488;9.202;2023-02-22T04:39:07;96783.50;;;7.80;48.02
17209;BME280;8720;48.488;9.202;2023-02-22T04:41:35;96778.38;;;7.75;48.17
17209;BME280;8720;48.488;9.202;2023-02-22T04:44:03;96785.31;;;7.76;48.06
17209;BME280;8720;48.488;9.202;2023-02-22T04:46:31;96786.19;;;7.75;48.17
17209;BME280;8720;48.488;9.202;2023-02-22T04:48:58;96788.81;;;7.74;48.38
17209;BME280;8720;48.488;9.202;2023-02-22T04:51:29;96785.34;;;7.73;48.49
17209;BME280;8720;48.488;9.202;2023-02-22T04:54:03;96787.94;;;7.73;48.19
17209;BME280;8720;48.488;9.202;2023-02-22T04:56:34;96790.59;;;7.72;48.21
17209;BME280;8720;48.488;9.202;2023-02-22T04:59:02;96786.28;;;7.71;48.36
17209;BME280;8720;48.488;9.202;2023-02-22T05:01:31;96785.44;;;7.69;48.20
17209;BME280;8720;48.488;9.202;2023-02-22T05:03:58;96795.91;;;7.67;48.45
17209;BME280;8720;48.488;9.202;2023-02-22T05:06:27;96789.84;;;7.64;48.37
17209;BME280;8720;48.488;9.202;2023-02-22T05:08:54;96782.94;;;7.63;48.25
17209;BME280;8720;48.488;9.202;2023-02-22T05:11:22;96788.19;;;7.61;48.21
17209;BME280;8720;48.488;9.202;2023-02-22T05:13:51;96785.59;;;7.60;48.40
17209;BME280;8720;48.488;9.202;2023-02-22T05:16:18;96787.34;;;7.59;48.40
17209;BME280;8720;48.488;9.202;2023-02-22T05:18:45;96788.25;;;7.57;48.45
17209;BME280;8720;48.488;9.202;2023-02-22T05:21:13;96779.66;;;7.52;48.70
17209;BME280;8720;48.488;9.202;2023-02-22T05:23:40;96785.69;;;7.52;48.70
17209;BME280;8720;48.488;9.202;2023-02-22T05:26:07;96784.88;;;7.52;48.42
17209;BME280;8720;48.488;9.202;2023-02-22T05:28:35;96784.06;;;7.48;48.65
17209;BME280;8720;48.488;9.202;2023-02-22T05:31:04;96776.34;;;7.41;48.72
17209;BME280;8720;48.488;9.202;2023-02-22T05:33:32;96777.16;;;7.46;48.87
17209;BME280;8720;48.488;9.202;2023-02-22T05:35:59;96778.84;;;7.47;49.03
17209;BME280;8720;48.488;9.202;2023-02-22T05:38:27;96770.19;;;7.48;48.93
17209;BME280;8720;48.488;9.202;2023-02-22T05:40:54;96769.31;;;7.47;49.05
17209;BME280;8720;48.488;9.202;2023-02-22T05:43:22;96773.66;;;7.48;48.93
17209;BME280;8720;48.488;9.202;2023-02-22T05:45:49;96759.84;;;7.43;48.65
17209;BME280;8720;48.488;9.202;2023-02-22T05:48:18;96772.72;;;7.51;49.14
17209;BME280;8720;48.488;9.202;2023-02-22T05:50:45;96767.50;;;7.51;49.20
17209;BME280;8720;48.488;9.202;2023-02-22T05:53:14;96764.91;;;7.51;49.26
17209;BME280;8720;48.488;9.202;2023-02-22T05:55:42;96763.19;;;7.51;49.19
17209;BME280;8720;48.488;9.202;2023-02-22T05:58:09;96763.16;;;7.53;49.13
17209;BME280;8720;48.488;9.202;2023-02-22T06:00:36;96768.34;;;7.53;49.24
17209;BME280;8720;48.488;9.202;2023-02-22T06:03:06;96745.94;;;7.44;49.25
17209;BME280;8720;48.488;9.202;2023-02-22T06:05:36;96756.19;;;7.55;49.11
17209;BME280;8720;48.488;9.202;2023-02-22T06:08:05;96745.75;;;7.55;49.40
17209;BME280;8720;48.488;9.202;2023-02-22T06:10:33;96758.75;;;7.58;49.31
17209;BME280;8720;48.488;9.202;2023-02-22T06:13:01;96749.19;;;7.57;49.31
17209;BME280;8720;48.488;9.202;2023-02-22T06:15:29;96762.22;;;7.57;49.39
17209;BME280;8720;48.488;9.202;2023-02-22T06:17:57;96751.84;;;7.55;49.37
17209;BME280;8720;48.488;9.202;2023-02-22T06:20:27;96741.59;;;7.45;49.31
17209;BME280;8720;48.488;9.202;2023-02-22T06:22:57;96750.06;;;7.57;49.39
17209;BME280;8720;48.488;9.202;2023-02-22T06:25:27;96762.22;;;7.57;49.63
17209;BME280;8720;48.488;9.202;2023-02-22T06:27:56;96755.25;;;7.59;49.61
17209;BME280;8720;48.488;9.202;2023-02-22T06:30:25;96752.56;;;7.62;49.74
17209;BME280;8720;48.488;9.202;2023-02-22T06:32:52;96760.34;;;7.65;49.51
17209;BME280;8720;48.488;9.202;2023-02-22T06:35:21;96759.41;;;7.69;49.67
17209;BME280;8720;48.488;9.202;2023-02-22T06:37:48;96756.72;;;7.75;49.64
17209;BME280;8720;48.488;9.202;2023-02-22T06:40:17;96754.94;;;7.77;49.55
17209;BME280;8720;48.488;9.202;2023-02-22T06:42:47;96760.81;;;7.88;49.64
17209;BME280;8720;48.488;9.202;2023-02-22T06:45:16;96761.56;;;7.94;49.46
17209;BME280;8720;48.488;9.202;2023-02-22T06:47:43;96759.69;;;8.01;49.52
17209;BME280;8720;48.488;9.202;2023-02-22T06:50:21;96762.19;;;8.07;49.56
17209;BME280;8720;48.488;9.202;2023-02-22T06:52:49;96763.81;;;8.12;49.40
17209;BME280;8720;48.488;9.202;2023-02-22T06:55:22;96758.50;;;8.18;49.51
17209;BME280;8720;48.488;9.202;2023-02-22T06:57:50;96767.91;;;8.29;50.12
17209;BME280;8720;48.488;9.202;2023-02-22T07:00:21;96764.56;;;8.65;50.43
17209;BME280;8720;48.488;9.202;2023-02-22T07:02:49;96774.13;;;8.64;49.88
17209;BME280;8720;48.488;9.202;2023-02-22T07:05:20;96771.50;;;8.66;49.47
17209;BME280;8720;48.488;9.202;2023-02-22T07:07:50;96770.56;;;8.68;49.58
17209;BME280;8720;48.488;9.202;2023-02-22T07:10:25;96768.69;;;8.75;49.58
17209;BME280;8720;48.488;9.202;2023-02-22T07:12:53;96769.41;;;8.83;49.44
17209;BME280;8720;48.488;9.202;2023-02-22T07:15:23;96761.41;;;8.90;49.24
17209;BME280;8720;48.488;9.202;2023-02-22T07:17:51;96758.63;;;8.98;49.40
17209;BME280;8720;48.488;9.202;2023-02-22T07:20:20;96766.25;;;9.07;49.42
17209;BME280;8720;48.488;9.202;2023-02-22T07:22:48;96762.50;;;9.18;49.39
17209;BME280;8720;48.488;9.202;2023-02-22T07:25:16;96757.88;;;9.31;49.48
17209;BME280;8720;48.488;9.202;2023-02-22T07:27:45;96766.03;;;9.53;49.38
17209;BME280;8720;48.488;9.202;2023-02-22T07:30:18;96761.78;;;9.84;49.43
17209;BME280;8720;48.488;9.202;2023-02-22T07:32:46;96748.09;;;10.10;49.34
17209;BME280;8720;48.488;9.202;2023-02-22T07:35:15;96749.69;;;10.46;49.10
17209;BME280;8720;48.488;9.202;2023-02-22T07:37:46;96753.34;;;10.71;48.72
17209;BME280;8720;48.488;9.202;2023-02-22T07:40:14;96758.56;;;11.00;48.53
17209;BME280;8720;48.488;9.202;2023-02-22T07:42:56;96748.41;;;11.19;48.29
17209;BME280;8720;48.488;9.202;2023-02-22T07:45:27;96752.13;;;11.39;47.59
17209;BME280;8720;48.488;9.202;2023-02-22T07:47:55;96757.75;;;11.55;47.74
17209;BME280;8720;48.488;9.202;2023-02-22T07:50:25;96755.69;;;11.64;47.72
17209;BME280;8720;48.488;9.202;2023-02-22T07:52:55;96757.91;;;11.76;47.43
17209;BME280;8720;48.488;9.202;2023-02-22T07:55:26;96756.81;;;11.83;47.17
17209;BME280;8720;48.488;9.202;2023-02-22T07:57:57;96753.94;;;11.91;47.26
17209;BME280;8720;48.488;9.202;2023-02-22T08:00:28;96757.25;;;11.96;47.11
17209;BME280;8720;48.488;9.202;2023-02-22T08:02:57;96758.94;;;11.99;46.99
17209;BME280;8720;48.488;9.202;2023-02-22T08:05:26;96765.84;;;12.01;46.95
17209;BME280;8720;48.488;9.202;2023-02-22T08:07:55;96756.16;;;12.03;46.73
17209;BME280;8720;48.488;9.202;2023-02-22T08:10:25;96768.28;;;12.06;46.90
17209;BME280;8720;48.488;9.202;2023-02-22T08:12:54;96758.72;;;12.05;47.13
17209;BME280;8720;48.488;9.202;2023-02-22T08:15:25;96758.47;;;12.12;46.73
17209;BME280;8720;48.488;9.202;2023-02-22T08:17:54;96760.13;;;12.15;46.87
17209;BME280;8720;48.488;9.202;2023-02-22T08:20:22;96764.41;;;12.17;46.65
17209;BME280;8720;48.488;9.202;2023-02-22T08:22:50;96759.91;;;12.21;46.61
17209;BME280;8720;48.488;9.202;2023-02-22T08:25:20;96761.47;;;12.26;46.69
17209;BME280;8720;48.488;9.202;2023-02-22T08:27:51;96763.06;;;12.30;46.62
17209;BME280;8720;48.488;9.202;2023-02-22T08:30:25;96757.66;;;12.35;46.65
17209;BME280;8720;48.488;9.202;2023-02-22T08:32:53;96754.88;;;12.39;46.50
17209;BME280;8720;48.488;9.202;2023-02-22T08:35:21;96756.50;;;12.43;46.41
17209;BME280;8720;48.488;9.202;2023-02-22T08:37:52;96761.69;;;12.45;46.39
17209;BME280;8720;48.488;9.202;2023-02-22T08:40:22;96751.97;;;12.47;46.34
17209;BME280;8720;48.488;9.202;2023-02-22T08:42:50;96755.50;;;12.46;46.19
17209;BME280;8720;48.488;9.202;2023-02-22T08:45:18;96752.84;;;12.47;46.26
17209;BME280;8720;48.488;9.202;2023-02-22T08:47:47;96759.84;;;12.47;46.11
17209;BME280;8720;48.488;9.202;2023-02-22T08:50:18;96746.09;;;12.40;46.13
17209;BME280;8720;48.488;9.202;2023-02-22T08:52:49;96752.06;;;12.44;46.06
17209;BME280;8720;48.488;9.202;2023-02-22T08:55:19;96752.06;;;12.44;46.03
17209;BME280;8720;48.488;9.202;2023-02-22T08:57:47;96745.13;;;12.43;45.99
17209;BME280;8720;48.488;9.202;2023-02-22T09:00:17;96737.41;;;12.38;46.27
17209;BME280;8720;48.488;9.202;2023-02-22T09:02:46;96748.63;;;12.43;46.10
17209;BME280;8720;48.488;9.202;2023-02-22T09:05:13;96740.84;;;12.40;46.22
17209;BME280;8720;48.488;9.202;2023-02-22T09:07:43;96749.44;;;12.45;46.15
17209;BME280;8720;48.488;9.202;2023-02-22T09:10:14;96743.31;;;12.45;46.06
17209;BME280;8720;48.488;9.202;2023-02-22T09:12:45;96749.22;;;12.51;46.10
17209;BME280;8720;48.488;9.202;2023-02-22T09:15:14;96742.22;;;12.50;46.12
17209;BME280;8720;48.488;9.202;2023-02-22T09:17:41;96743.84;;;12.54;46.22
17209;BME280;8720;48.488;9.202;2023-02-22T09:20:11;96742.88;;;12.57;46.21
17209;BME280;8720;48.488;9.202;2023-02-22T09:22:39;96747.13;;;12.59;46.33
17209;BME280;8720;48.488;9.202;2023-02-22T09:25:07;96751.16;;;12.69;46.15
17209;BME280;8720;48.488;9.202;2023-02-22T09:27:34;96740.50;;;12.74;46.17
17209;BME280;8720;48.488;9.202;2023-02-22T09:30:04;96742.59;;;12.88;46.39
17209;BME280;8720;48.488;9.202;2023-02-22T09:32:32;96741.34;;;12.98;46.19
17209;BME280;8720;48.488;9.202;2023-02-22T09:34:59;96739.31;;;13.06;45.95
17209;BME280;8720;48.488;9.202;2023-02-22T09:37:28;96740.00;;;13.11;46.14
17209;BME280;8720;48.488;9.202;2023-02-22T09:39:55;96736.16;;;13.19;45.90
17209;BME280;8720;48.488;9.202;2023-02-22T09:42:32;96732.31;;;13.28;45.88
17209;BME280;8720;48.488;9.202;2023-02-22T09:45:09;96734.50;;;13.38;45.90
17209;BME280;8720;48.488;9.202;2023-02-22T09:47:46;96733.06;;;13.53;46.02
17209;BME280;8720;48.488;9.202;2023-02-22T09:50:21;96736.91;;;13.66;45.62
17209;BME280;8720;48.488;9.202;2023-02-22T09:52:58;96720.56;;;13.80;45.70
17209;BME280;8720;48.488;9.202;2023-02-22T09:55:36;96720.78;;;13.95;45.61
17209;BME280;8720;48.488;9.202;2023-02-22T09:58:18;96718.44;;;14.09;45.33
17209;BME280;8720;48.488;9.202;2023-02-22T10:00:51;96723.03;;;14.24;45.42
17209;BME280;8720;48.488;9.202;2023-02-22T10:03:33;96717.13;;;14.39;45.16
17209;BME280;8720;48.488;9.202;2023-02-22T10:06:09;96713.91;;;14.53;45.13
17209;BME280;8720;48.488;9.202;2023-02-22T10:08:38;96711.44;;;14.69;44.98
17209;BME280;8720;48.488;9.202;2023-02-22T10:11:28;96720.56;;;14.80;44.79
17209;BME280;8720;48.488;9.202;2023-02-22T10:14:15;96721.78;;;14.92;44.49
17209;BME280;8720;48.488;9.202;2023-02-22T10:16:56;96715.16;;;15.02;44.47
17209;BME280;8720;48.488;9.202;2023-02-22T10:19:41;96712.19;;;15.09;44.53
17209;BME280;8720;48.488;9.202;2023-02-22T10:22:34;96711.28;;;15.27;44.31
17209;BME280;8720;48.488;9.202;2023-02-22T10:25:11;96711.47;;;15.43;44.08
17209;BME280;8720;48.488;9.202;2023-02-22T10:27:53;96710.59;;;15.61;44.05
17209;BME280;8720;48.488;9.202;2023-02-22T10:30:25;96715.09;;;15.76;43.79
17209;BME280;8720;48.488;9.202;2023-02-22T10:33:00;96713.41;;;15.92;43.72
17209;BME280;8720;48.488;9.202;2023-02-22T10:35:34;96710.94;;;16.06;43.34
17209;BME280;8720;48.488;9.202;2023-02-22T10:38:13;96710.19;;;16.21;43.11
17209;BME280;8720;48.488;9.202;2023-02-22T10:40:49;96719.06;;;16.36;42.98
17209;BME280;8720;48.488;9.202;2023-02-22T10:43:20;96709.63;;;16.49;42.95
17209;BME280;8720;48.488;9.202;2023-02-22T10:45:51;96711.44;;;16.64;42.44
17209;BME280;8720;48.488;9.202;2023-02-22T10:48:23;96712.59;;;16.76;42.56
17209;BME280;8720;48.488;9.202;2023-02-22T10:50:57;96715.59;;;16.85;42.29
17209;BME280;8720;48.488;9.202;2023-02-22T10:53:27;96709.84;;;16.94;42.03
17209;BME280;8720;48.488;9.202;2023-02-22T10:56:13;96711.19;;;17.01;42.11
17209;BME280;8720;48.488;9.202;2023-02-22T10:58:48;96708.13;;;17.09;41.96
17209;BME280;8720;48.488;9.202;2023-02-22T11:01:34;96703.28;;;17.17;41.94
17209;BME280;8720;48.488;9.202;2023-02-22T11:04:10;96698.25;;;17.28;41.78
17209;BME280;8720;48.488;9.202;2023-02-22T11:06:41;96695.69;;;17.42;41.31
17209;BME280;8720;48.488;9.202;2023-02-22T11:09:13;96696.66;;;17.57;41.43
17209;BME280;8720;48.488;9.202;2023-02-22T11:11:46;96691.72;;;17.66;41.09
17209;BME280;8720;48.488;9.202;2023-02-22T11:14:26;96692.44;;;17.84;41.00
17209;BME280;8720;48.488;9.202;2023-02-22T11:16:55;96673.66;;;17.88;40.44
17209;BME280;8720;48.488;9.202;2023-02-22T11:19:26;96681.03;;;17.97;40.64
17209;BME280;8720;48.488;9.202;2023-02-22T11:22:09;96673.50;;;18.05;40.47
17209;BME280;8720;48.488;9.202;2023-02-22T11:24:48;96668.72;;;18.12;40.40
17209;BME280;8720;48.488;9.202;2023-02-22T11:27:31;96660.06;;;18.24;40.26
17209;BME280;8720;48.488;9.202;2023-02-22T11:30:21;96648.91;;;18.33;40.34
17209;BME280;8720;48.488;9.202;2023-02-22T11:32:56;96644.16;;;18.38;39.88
17209;BME280;8720;48.488;9.202;2023-02-22T11:35:39;96649.69;;;18.49;40.00
17209;BME280;8720;48.488;9.202;2023-02-22T11:38:21;96642.22;;;18.56;39.61
17209;BME280;8720;48.488;9.202;2023-02-22T11:41:11;96639.84;;;18.65;39.89
17209;BME280;8720;48.488;9.202;2023-02-22T11:43:43;96637.59;;;18.73;38.92
17209;BME280;8720;48.488;9.202;2023-02-22T11:46:13;96635.41;;;18.80;38.78
17209;BME280;8720;48.488;9.202;2023-02-22T11:48:55;96624.22;;;18.89;39.13
17209;BME280;8720;48.488;9.202;2023-02-22T11:51:47;96623.47;;;19.01;38.86
17209;BME280;8720;48.488;9.202;2023-02-22T11:54:42;96619.94;;;19.15;38.48
17209;BME280;8720;48.488;9.202;2023-02-22T11:57:28;96625.09;;;19.30;38.70
17209;BME280;8720;48.488;9.202;2023-02-22T12:00:20;96610.94;;;19.44;38.23
17209;BME280;8720;48.488;9.202;2023-02-22T12:03:23;96607.72;;;19.53;38.23
17209;BME280;8720;48.488;9.202;2023-02-22T12:06:24;96605.31;;;19.62;38.09
17209;BME280;8720;48.488;9.202;2023-02-22T12:09:13;96602.13;;;19.70;37.83
17209;BME280;8720;48.488;9.202;2023-02-22T12:12:01;96592.78;;;19.77;37.90
17209;BME280;8720;48.488;9.202;2023-02-22T12:14:41;96597.69;;;19.83;37.26
17209;BME280;8720;48.488;9.202;2023-02-22T12:17:25;96596.66;;;19.85;37.04
17209;BME280;8720;48.488;9.202;2023-02-22T12:20:02;96597.41;;;19.87;36.76
17209;BME280;8720;48.488;9.202;2023-02-22T12:22:38;96592.72;;;19.91;36.74
17209;BME280;8720;48.488;9.202;2023-02-22T12:25:19;96599.41;;;19.97;36.27
17209;BME280;8720;48.488;9.202;2023-02-22T12:27:52;96591.34;;;19.98;36.34
17209;BME280;8720;48.488;9.202;2023-02-22T12:30:25;96589.44;;;20.00;36.30
17209;BME280;8720;48.488;9.202;2023-02-22T12:32:59;96591.16;;;20.01;36.49
17209;BME280;8720;48.488;9.202;2023-02-22T12:35:33;96586.47;;;20.05;36.47
17209;BME280;8720;48.488;9.202;2023-02-22T12:38:13;96584.16;;;20.13;35.88
17209;BME280;8720;48.488;9.202;2023-02-22T12:40:55;96583.94;;;20.16;35.86
17209;BME280;8720;48.488;9.202;2023-02-22T12:43:30;96590.09;;;20.16;36.04
17209;BME280;8720;48.488;9.202;2023-02-22T12:46:05;96588.31;;;20.17;35.80
17209;BME280;8720;48.488;9.202;2023-02-22T12:48:46;96574.34;;;20.13;35.78
17209;BME280;8720;48.488;9.202;2023-02-22T12:51:27;96584.59;;;20.19;35.79
17209;BME280;8720;48.488;9.202;2023-02-22T12:54:06;96590.00;;;20.18;35.45
17209;BME280;8720;48.488;9.202;2023-02-22T12:56:44;96584.16;;;20.13;35.46
17209;BME280;8720;48.488;9.202;2023-02-22T12:59:23;96581.63;;;20.11;35.14
17209;BME280;8720;48.488;9.202;2023-02-22T13:01:57;96588.72;;;20.11;35.26
17209;BME280;8720;48.488;9.202;2023-02-22T13:04:28;96582.31;;;20.13;35.43
17209;BME280;8720;48.488;9.202;2023-02-22T13:07:17;96586.59;;;20.16;35.40
17209;BME280;8720;48.488;9.202;2023-02-22T13:12:59;96586.59;;;20.16;35.34
17209;BME280;8720;48.488;9.202;2023-02-22T13:15:38;96579.47;;;20.16;35.18
17209;BME280;8720;48.488;9.202;2023-02-22T13:18:17;96583.06;;;20.15;35.05
17209;BME280;8720;48.488;9.202;2023-02-22T13:20:58;96579.91;;;20.10;35.34
17209;BME280;8720;48.488;9.202;2023-02-22T13:23:38;96579.91;;;20.10;35.34
17209;BME280;8720;48.488;9.202;2023-02-22T13:26:20;96577.34;;;20.09;35.34
17209;BME280;8720;48.488;9.202;2023-02-22T13:28:57;96576.59;;;20.07;35.36
17209;BME280;8720;48.488;9.202;2023-02-22T13:32:01;96581.91;;;20.07;35.54
17209;BME280;8720;48.488;9.202;2023-02-22T13:34:58;96572.56;;;20.01;35.26
17209;BME280;8720;48.488;9.202;2023-02-22T13:38:15;96571.19;;;19.96;35.44
17209;BME280;8720;48.488;9.202;2023-02-22T13:41:30;96566.28;;;19.89;35.63
17209;BME280;8720;48.488;9.202;2023-02-22T13:44:20;96563.75;;;19.88;35.24
17209;BME280;8720;48.488;9.202;2023-02-22T13:47:55;96562.25;;;19.84;35.37
17209;BME280;8720;48.488;9.202;2023-02-22T13:50:53;96560.66;;;19.81;35.46
17209;BME280;8720;48.488;9.202;2023-02-22T13:53:30;96570.09;;;19.85;34.85
17209;BME280;8720;48.488;9.202;2023-02-22T13:56:00;96560.97;;;19.89;34.71
17209;BME280;8720;48.488;9.202;2023-02-22T13:58:27;96565.75;;;19.97;34.84
17209;BME280;8720;48.488;9.202;2023-02-22T14:00:57;96569.91;;;20.01;34.42